Time;durP1;ratioP1;P1;durP2;ratioP2;P2;SDS_P1;SDS_P2;PMS_P1;PMS_P2;Temp;Humidity;BMP_temperature;BMP_pressure;BME280_temperature;BME280_humidity;BME280_pressure;Samples;Min_cycle;Max_cycle;Signal;HPM_P1;HPM_P2
2022/04/09 00:00:43;;;;;;;11.27;2.58;;;4.10;99.90;;;;;;5033707;28;20110;-42
2022/04/09 00:03:12;;;;;;;12.98;2.80;;;4.00;99.90;;;;;;5008088;28;20041;-41
2022/04/09 00:05:38;;;;;;;9.07;2.60;;;4.10;99.90;;;;;;5030238;28;20045;-41
2022/04/09 00:08:04;;;;;;;14.30;3.10;;;4.00;99.90;;;;;;5014252;28;20542;-43
2022/04/09 00:10:31;;;;;;;15.02;2.90;;;4.00;99.90;;;;;;5034707;28;20400;-41
2022/04/09 00:12:57;;;;;;;15.43;2.63;;;4.00;99.90;;;;;;5037606;28;20112;-42
2022/04/09 00:15:23;;;;;;;17.88;2.88;;;4.00;99.90;;;;;;5023503;28;20571;-41
2022/04/09 00:17:49;;;;;;;14.65;2.67;;;4.00;99.90;;;;;;5031119;28;20041;-41
2022/04/09 00:20:17;;;;;;;17.77;3.00;;;4.00;99.90;;;;;;5027468;28;20518;-41
2022/04/09 00:22:44;;;;;;;10.05;2.55;;;4.10;99.90;;;;;;5029633;28;20393;-41
2022/04/09 00:25:15;;;;;;;10.38;2.50;;;4.10;99.90;;;;;;5025260;28;20670;-42
2022/04/09 00:27:41;;;;;;;19.23;3.13;;;4.20;99.90;;;;;;5031698;28;20060;-41
2022/04/09 00:30:09;;;;;;;10.82;3.63;;;4.20;99.90;;;;;;5024066;28;20052;-41
2022/04/09 00:32:35;;;;;;;14.48;2.78;;;4.20;99.90;;;;;;5032233;28;20115;-41
2022/04/09 00:44:18;;;;;;;8.95;1.92;;;4.10;99.90;;;;;;5024431;28;20123;-41
2022/04/09 00:46:45;;;;;;;7.93;2.45;;;4.10;99.90;;;;;;5027947;28;20578;-41
2022/04/09 00:49:12;;;;;;;9.05;1.75;;;4.00;99.90;;;;;;5025393;28;20050;-42
2022/04/09 00:51:40;;;;;;;10.25;1.90;;;4.00;99.90;;;;;;5027793;28;20037;-42
2022/04/09 00:54:07;;;;;;;11.45;1.80;;;4.00;99.90;;;;;;5038614;28;20057;-42
2022/04/09 00:56:35;;;;;;;8.60;1.75;;;4.00;99.90;;;;;;5028605;28;20057;-42
2022/04/09 00:59:03;;;;;;;9.43;2.00;;;3.90;99.90;;;;;;5021121;28;20467;-41
2022/04/09 01:01:35;;;;;;;9.93;2.03;;;3.90;99.90;;;;;;5032178;28;20093;-42
2022/04/09 01:04:10;;;;;;;12.05;2.55;;;3.90;99.90;;;;;;5023839;28;20049;-41
2022/04/09 01:06:37;;;;;;;9.35;2.35;;;3.90;99.90;;;;;;5019851;28;20185;-42
2022/04/09 01:09:05;;;;;;;10.52;2.08;;;3.90;99.90;;;;;;5024256;28;20041;-43
2022/04/09 01:11:32;;;;;;;13.45;2.95;;;4.00;99.90;;;;;;5021122;28;20049;-41
2022/04/09 01:13:58;;;;;;;6.90;1.70;;;4.10;99.90;;;;;;5023889;28;20123;-41
2022/04/09 01:16:28;;;;;;;7.82;1.52;;;4.20;99.90;;;;;;5037523;28;20053;-41
2022/04/09 01:18:58;;;;;;;7.60;1.60;;;4.20;99.90;;;;;;5024844;28;20131;-41
2022/04/09 01:21:25;;;;;;;8.15;1.58;;;4.20;99.90;;;;;;5022278;28;20385;-41
2022/04/09 01:23:51;;;;;;;7.05;2.00;;;4.20;99.90;;;;;;5035547;28;20045;-42
2022/04/09 01:26:17;;;;;;;5.15;1.50;;;4.10;99.90;;;;;;5020911;28;20602;-41
2022/04/09 01:28:43;;;;;;;5.40;1.00;;;4.10;99.90;;;;;;5033847;28;20487;-41
2022/04/09 01:31:09;;;;;;;9.70;1.40;;;4.00;99.90;;;;;;5039902;28;20222;-42
2022/04/09 01:33:35;;;;;;;3.90;1.30;;;3.90;99.90;;;;;;5026498;28;20048;-41
2022/04/09 01:36:02;;;;;;;6.80;1.30;;;3.90;99.90;;;;;;5037294;28;20045;-41
2022/04/09 01:38:28;;;;;;;8.25;1.60;;;3.90;99.90;;;;;;5029527;28;20745;-41
2022/04/09 01:40:56;;;;;;;6.50;2.20;;;3.80;99.90;;;;;;5032949;28;20048;-41
2022/04/09 01:43:24;;;;;;;6.38;2.33;;;3.80;99.90;;;;;;5026665;28;20119;-41
2022/04/09 01:45:50;;;;;;;5.93;1.60;;;3.80;99.90;;;;;;5028486;28;20053;-41
2022/04/09 01:48:16;;;;;;;10.85;2.22;;;3.80;99.90;;;;;;5008652;28;20046;-42
2022/04/09 01:50:41;;;;;;;11.48;1.90;;;3.80;99.90;;;;;;5023750;28;20049;-40
2022/04/09 01:53:08;;;;;;;7.40;1.63;;;3.90;99.90;;;;;;5028615;28;20049;-45
2022/04/09 01:55:34;;;;;;;8.02;2.05;;;3.90;99.90;;;;;;5032430;28;20045;-41
2022/04/09 01:58:00;;;;;;;7.00;1.50;;;3.90;99.90;;;;;;5006395;28;20057;-41
2022/04/09 02:00:26;;;;;;;6.70;1.45;;;4.00;99.90;;;;;;5032413;28;20251;-41
2022/04/09 02:02:51;;;;;;;7.60;1.65;;;3.90;99.90;;;;;;5038791;28;20045;-41
2022/04/09 02:05:18;;;;;;;9.95;2.22;;;3.90;99.90;;;;;;5040695;28;20052;-43
2022/04/09 02:07:45;;;;;;;10.77;2.35;;;3.90;99.90;;;;;;5025699;28;20071;-41
2022/04/09 02:10:11;;;;;;;8.85;1.70;;;3.90;99.90;;;;;;5037003;28;20106;-41
2022/04/09 02:12:37;;;;;;;8.73;2.05;;;3.80;99.90;;;;;;5033317;28;20140;-41
2022/04/09 02:15:08;;;;;;;8.73;1.92;;;3.80;99.90;;;;;;5019983;28;20053;-41
2022/04/09 02:17:35;;;;;;;17.98;3.22;;;3.80;99.90;;;;;;5020709;28;20084;-40
2022/04/09 02:20:03;;;;;;;10.02;1.63;;;3.80;99.90;;;;;;5019215;28;20049;-41
2022/04/09 02:22:36;;;;;;;11.40;2.17;;;3.80;99.90;;;;;;5017449;28;20130;-41
2022/04/09 02:25:12;;;;;;;8.27;1.70;;;3.80;99.90;;;;;;5022293;28;20447;-41
2022/04/09 02:27:38;;;;;;;11.52;2.47;;;3.90;99.90;;;;;;5018711;28;20045;-42
2022/04/09 02:30:06;;;;;;;8.48;2.13;;;4.00;99.90;;;;;;5031088;28;20049;-41
2022/04/09 02:32:32;;;;;;;7.75;1.83;;;4.10;99.90;;;;;;5033267;28;20041;-42
2022/04/09 02:34:57;;;;;;;8.45;1.67;;;4.10;99.90;;;;;;5023530;28;20538;-41
2022/04/09 02:37:23;;;;;;;8.05;2.00;;;4.10;99.90;;;;;;5021212;28;20059;-41
2022/04/09 02:39:49;;;;;;;8.75;1.17;;;4.00;99.90;;;;;;5035469;28;20045;-40
2022/04/09 02:42:15;;;;;;;10.13;1.83;;;4.00;99.90;;;;;;5031880;28;20580;-41
2022/04/09 02:44:43;;;;;;;7.65;1.50;;;4.00;99.90;;;;;;5026296;28;20057;-41
2022/04/09 02:47:09;;;;;;;14.93;2.53;;;4.00;99.90;;;;;;5032269;28;20526;-41
2022/04/09 02:49:35;;;;;;;9.13;1.63;;;4.00;99.90;;;;;;5038986;28;20049;-42
2022/04/09 02:52:00;;;;;;;6.68;1.80;;;3.90;99.90;;;;;;5030672;28;20487;-42
2022/04/09 02:54:26;;;;;;;7.82;1.60;;;3.90;99.90;;;;;;5037808;28;20411;-41
2022/04/09 02:56:53;;;;;;;4.03;1.02;;;3.80;99.90;;;;;;5034160;28;20049;-42
2022/04/09 02:59:19;;;;;;;10.98;2.08;;;3.80;99.90;;;;;;5032931;28;20067;-42
2022/04/09 03:01:46;;;;;;;5.95;1.40;;;3.70;99.90;;;;;;5034000;28;20428;-43
2022/04/09 03:04:16;;;;;;;10.90;1.42;;;3.60;99.90;;;;;;5023240;28;20052;-41
2022/04/09 03:06:41;;;;;;;5.70;1.20;;;3.60;99.90;;;;;;5034040;28;20500;-42
2022/04/09 03:09:07;;;;;;;7.75;1.58;;;3.50;99.90;;;;;;5028057;28;20053;-41
2022/04/09 03:11:33;;;;;;;7.72;1.80;;;3.50;99.90;;;;;;5030847;28;20045;-41
2022/04/09 03:13:59;;;;;;;10.15;1.80;;;3.50;99.90;;;;;;5028234;28;20201;-41
2022/04/09 03:16:25;;;;;;;9.27;1.77;;;3.40;99.90;;;;;;5031074;28;20464;-41
2022/04/09 03:18:50;;;;;;;7.20;1.60;;;3.40;99.90;;;;;;5039583;28;20098;-41
2022/04/09 03:21:16;;;;;;;4.00;1.60;;;3.30;99.90;;;;;;5042888;28;20055;-41
2022/04/09 03:23:42;;;;;;;6.22;2.72;;;3.30;99.90;;;;;;5028156;28;20053;-42
2022/04/09 03:26:08;;;;;;;7.93;2.35;;;3.30;99.90;;;;;;5034193;28;20076;-41
2022/04/09 03:28:33;;;;;;;5.38;1.20;;;3.30;99.90;;;;;;5034736;28;20128;-41
2022/04/09 03:30:59;;;;;;;7.43;1.58;;;3.20;99.90;;;;;;5033619;28;20053;-41
2022/04/09 03:33:25;;;;;;;9.40;1.65;;;3.20;99.90;;;;;;5026598;28;20428;-41
2022/04/09 03:35:51;;;;;;;7.47;1.88;;;3.20;99.90;;;;;;5040128;28;20056;-42
2022/04/09 03:38:18;;;;;;;7.53;2.00;;;3.20;99.90;;;;;;5027640;28;20049;-41
2022/04/09 03:40:43;;;;;;;9.32;2.00;;;3.20;99.90;;;;;;5011538;28;20056;-40
2022/04/09 03:43:09;;;;;;;8.18;1.63;;;3.20;99.90;;;;;;5021176;28;20053;-41
2022/04/09 03:45:35;;;;;;;10.73;1.92;;;3.20;99.90;;;;;;5023237;28;20049;-42
2022/04/09 03:48:02;;;;;;;7.63;2.03;;;3.20;99.90;;;;;;5026684;28;20056;-41
2022/04/09 03:50:28;;;;;;;12.60;1.92;;;3.20;99.90;;;;;;5042102;28;20064;-41
2022/04/09 03:52:54;;;;;;;7.82;1.60;;;3.20;99.90;;;;;;5025412;28;20053;-41
2022/04/09 03:55:20;;;;;;;8.32;1.30;;;3.20;99.90;;;;;;5022847;28;20052;-42
2022/04/09 03:57:46;;;;;;;10.82;1.83;;;3.20;99.90;;;;;;5029184;28;20041;-41
2022/04/09 04:00:14;;;;;;;7.28;2.10;;;3.20;99.90;;;;;;5032674;28;20170;-43
2022/04/09 04:02:40;;;;;;;11.90;2.10;;;3.20;99.90;;;;;;5036948;28;20435;-41
2022/04/09 04:05:07;;;;;;;11.77;2.17;;;3.20;99.90;;;;;;5035995;28;20470;-41
2022/04/09 04:07:33;;;;;;;7.63;2.38;;;3.20;99.90;;;;;;5028605;28;20384;-42
2022/04/09 04:10:10;;;;;;;10.25;1.67;;;3.20;99.90;;;;;;5022980;28;20041;-42
2022/04/09 04:12:36;;;;;;;6.90;2.25;;;3.10;99.90;;;;;;5028217;28;20049;-42
2022/04/09 04:15:03;;;;;;;8.25;2.05;;;3.20;99.90;;;;;;5029245;28;20041;-41
2022/04/09 04:17:39;;;;;;;13.02;3.38;;;3.10;99.90;;;;;;5024569;28;20052;-41
2022/04/09 04:20:06;;;;;;;14.75;1.95;;;3.20;99.90;;;;;;5021710;28;20061;-41
2022/04/09 04:22:31;;;;;;;9.60;2.38;;;3.20;99.90;;;;;;5041559;28;20117;-41
2022/04/09 04:24:57;;;;;;;9.73;2.42;;;3.30;99.90;;;;;;5011024;28;20252;-41
2022/04/09 04:27:23;;;;;;;7.72;1.92;;;3.40;99.90;;;;;;5040046;28;20123;-41
2022/04/09 04:29:50;;;;;;;7.50;2.20;;;3.50;99.90;;;;;;5035342;28;20080;-41
2022/04/09 04:32:16;;;;;;;15.88;2.65;;;3.60;99.90;;;;;;5021797;28;20042;-41
2022/04/09 04:34:41;;;;;;;12.50;2.65;;;3.70;99.90;;;;;;5020465;28;20058;-41
2022/04/09 04:37:07;;;;;;;6.05;1.60;;;3.70;99.90;;;;;;5028493;28;20076;-41
2022/04/09 04:39:33;;;;;;;11.20;1.50;;;3.70;99.90;;;;;;5009382;28;20452;-42
2022/04/09 04:41:58;;;;;;;10.02;1.50;;;3.70;99.90;;;;;;5014368;28;20447;-41
2022/04/09 04:44:24;;;;;;;8.65;1.70;;;3.70;99.90;;;;;;5033539;28;20088;-41
2022/04/09 04:46:50;;;;;;;9.82;1.85;;;3.70;99.90;;;;;;5029409;28;20045;-41
2022/04/09 04:49:16;;;;;;;6.25;1.73;;;3.70;99.90;;;;;;5027695;28;20393;-41
2022/04/09 04:51:42;;;;;;;8.98;2.90;;;3.70;99.90;;;;;;5020744;28;20517;-41
2022/04/09 04:54:07;;;;;;;10.70;2.17;;;3.70;99.90;;;;;;5021070;28;20211;-41
2022/04/09 04:56:33;;;;;;;9.95;2.17;;;3.70;99.90;;;;;;5009400;28;20056;-40
2022/04/09 04:58:59;;;;;;;9.93;1.60;;;3.70;99.90;;;;;;5028720;28;20064;-41
2022/04/09 05:01:25;;;;;;;10.02;1.95;;;3.70;99.90;;;;;;5025640;28;20588;-42
2022/04/09 05:03:50;;;;;;;9.82;3.08;;;3.70;99.90;;;;;;5037065;28;20053;-42
2022/04/09 05:06:16;;;;;;;7.13;1.73;;;3.80;99.90;;;;;;5034924;28;20520;-42
2022/04/09 05:08:42;;;;;;;15.48;2.30;;;3.90;99.90;;;;;;5037429;28;20412;-41
2022/04/09 05:11:07;;;;;;;11.38;2.20;;;4.00;99.90;;;;;;5033798;28;20540;-42
2022/04/09 05:13:33;;;;;;;9.13;1.90;;;4.10;99.90;;;;;;5024311;28;20446;-42
2022/04/09 05:16:02;;;;;;;6.40;1.70;;;4.20;99.90;;;;;;5032151;28;20154;-41
2022/04/09 05:18:28;;;;;;;13.13;2.03;;;4.40;99.90;;;;;;5041982;28;20041;-42
2022/04/09 05:20:53;;;;;;;7.80;1.63;;;4.40;99.90;;;;;;5015511;28;20068;-43
2022/04/09 05:23:19;;;;;;;12.82;1.77;;;4.50;99.90;;;;;;5009773;28;20097;-41
2022/04/09 05:25:45;;;;;;;6.68;1.98;;;4.50;99.90;;;;;;5028405;28;20041;-41
2022/04/09 05:28:12;;;;;;;10.40;1.90;;;4.50;99.90;;;;;;5026067;28;20091;-41
2022/04/09 05:30:38;;;;;;;10.05;2.00;;;4.40;99.90;;;;;;5031877;28;20049;-42
2022/04/09 05:33:03;;;;;;;14.13;1.80;;;4.30;99.90;;;;;;5032858;28;20068;-41
2022/04/09 05:35:29;;;;;;;6.47;1.70;;;4.20;99.90;;;;;;5009363;28;20126;-41
2022/04/09 05:37:55;;;;;;;10.98;2.40;;;4.20;99.90;;;;;;5025587;28;20055;-41
2022/04/09 05:40:22;;;;;;;8.45;1.85;;;4.10;99.90;;;;;;5031832;28;20045;-41
2022/04/09 05:42:48;;;;;;;10.05;2.10;;;4.10;99.90;;;;;;5023967;28;20049;-42
2022/04/09 05:45:14;;;;;;;10.00;2.17;;;4.10;99.90;;;;;;5020105;28;20128;-41
2022/04/09 05:47:42;;;;;;;12.23;2.10;;;4.10;99.90;;;;;;5031226;28;20469;-42
2022/04/09 05:50:09;;;;;;;8.02;2.58;;;4.90;99.90;;;;;;5031432;28;20408;-41
2022/04/09 05:52:35;;;;;;;9.80;2.25;;;5.60;99.90;;;;;;5029224;28;20111;-41
2022/04/09 05:55:03;;;;;;;8.02;2.88;;;6.00;99.90;;;;;;5031154;28;20500;-41
2022/04/09 05:57:30;;;;;;;18.00;2.20;;;6.30;99.90;;;;;;5011748;28;20507;-41
2022/04/09 05:59:55;;;;;;;10.60;2.30;;;7.30;99.90;;;;;;5026132;28;20488;-41
2022/04/09 06:02:21;;;;;;;10.63;2.38;;;8.60;99.90;;;;;;5033150;28;20337;-42
2022/04/09 06:04:47;;;;;;;11.73;2.42;;;9.30;99.90;;;;;;5038370;28;20114;-41
2022/04/09 06:07:13;;;;;;;13.38;2.03;;;10.10;99.90;;;;;;5036427;28;20079;-43
2022/04/09 06:09:41;;;;;;;12.65;2.35;;;10.70;99.90;;;;;;5038909;28;20045;-42
2022/04/09 06:12:08;;;;;;;11.77;2.45;;;11.20;99.90;;;;;;5026797;28;20053;-44
2022/04/09 06:14:34;;;;;;;9.40;1.73;;;12.00;99.90;;;;;;5037841;28;20057;-41
2022/04/09 06:17:03;;;;;;;7.20;2.00;;;12.90;99.90;;;;;;5026772;28;20053;-43
2022/04/09 06:19:29;;;;;;;11.40;2.28;;;13.60;99.90;;;;;;5039661;28;20075;-43
2022/04/09 06:21:56;;;;;;;10.30;2.13;;;14.10;99.90;;;;;;5039954;28;20053;-43
2022/04/09 06:24:23;;;;;;;9.93;2.47;;;14.60;99.90;;;;;;5031136;28;20128;-43
2022/04/09 06:26:49;;;;;;;7.90;1.85;;;14.10;99.90;;;;;;5018724;28;20060;-43
2022/04/09 06:29:15;;;;;;;8.52;1.98;;;12.40;99.90;;;;;;5028372;28;20044;-43
2022/04/09 06:31:40;;;;;;;5.88;1.50;;;11.40;99.90;;;;;;5025891;28;20049;-42
2022/04/09 06:34:10;;;;;;;8.30;1.60;;;10.50;99.90;;;;;;5035993;28;20048;-42
2022/04/09 06:36:36;;;;;;;6.20;1.55;;;9.50;99.90;;;;;;5022095;28;20045;-45
2022/04/09 06:39:01;;;;;;;5.80;1.40;;;9.00;99.90;;;;;;5029582;28;20033;-42
2022/04/09 06:41:28;;;;;;;8.30;1.92;;;8.40;99.90;;;;;;5023513;28;20055;-42
2022/04/09 06:43:55;;;;;;;7.25;1.98;;;8.00;99.90;;;;;;5030483;28;20065;-41
2022/04/09 06:46:20;;;;;;;8.38;1.80;;;7.60;99.90;;;;;;5028469;28;20042;-43
2022/04/09 06:48:46;;;;;;;10.95;2.00;;;7.40;99.90;;;;;;5026265;28;20518;-42
2022/04/09 06:51:12;;;;;;;10.95;2.15;;;7.30;99.90;;;;;;5020203;28;20045;-42
2022/04/09 06:53:38;;;;;;;6.68;2.10;;;7.50;99.90;;;;;;5012667;28;20524;-42
2022/04/09 06:56:04;;;;;;;19.25;3.45;;;8.50;99.90;;;;;;5026693;28;20057;-41
2022/04/09 06:58:30;;;;;;;14.38;3.55;;;9.50;99.90;;;;;;5027392;28;20144;-42
2022/04/09 07:00:56;;;;;;;10.82;2.78;;;10.30;99.90;;;;;;5022568;28;20044;-42
2022/04/09 07:03:22;;;;;;;11.45;3.40;;;10.20;99.90;;;;;;5039466;28;20133;-43
2022/04/09 07:05:47;;;;;;;11.98;2.58;;;10.10;99.90;;;;;;5040648;28;20049;-44
2022/04/09 07:08:13;;;;;;;12.27;2.90;;;10.60;99.90;;;;;;5007729;28;20499;-42
2022/04/09 07:10:39;;;;;;;13.52;2.50;;;10.60;99.90;;;;;;5034890;28;20508;-42
2022/04/09 07:13:08;;;;;;;11.27;2.63;;;10.40;99.90;;;;;;5038555;28;20506;-42
2022/04/09 07:15:34;;;;;;;7.47;1.73;;;10.40;99.90;;;;;;5021355;28;20412;-42
2022/04/09 07:18:00;;;;;;;9.15;2.15;;;10.50;99.90;;;;;;5019337;28;20042;-43
2022/04/09 07:20:26;;;;;;;12.18;1.90;;;10.70;99.90;;;;;;5018652;28;20046;-42
2022/04/09 07:22:52;;;;;;;7.15;1.63;;;10.80;99.90;;;;;;5029921;28;20051;-43
2022/04/09 07:25:18;;;;;;;5.63;1.65;;;11.00;99.90;;;;;;5042412;28;20060;-43
2022/04/09 07:27:45;;;;;;;8.60;2.00;;;11.00;99.90;;;;;;5041317;28;20041;-42
2022/04/09 07:30:19;;;;;;;4.82;1.25;;;11.00;99.90;;;;;;5027508;28;20167;-43
2022/04/09 07:32:46;;;;;;;11.55;2.10;;;11.10;99.90;;;;;;5013017;28;20053;-42
2022/04/09 07:35:12;;;;;;;8.80;2.08;;;11.20;99.90;;;;;;5033160;28;20086;-43
2022/04/09 07:37:43;;;;;;;9.65;2.13;;;11.30;99.90;;;;;;5032226;28;20049;-42
2022/04/09 07:40:10;;;;;;;7.93;2.00;;;11.40;99.90;;;;;;5031879;28;20656;-43
2022/04/09 07:42:37;;;;;;;8.52;1.88;;;11.40;99.90;;;;;;5016307;28;20048;-43
2022/04/09 07:45:03;;;;;;;7.38;1.60;;;11.20;99.90;;;;;;5026043;28;20357;-43
2022/04/09 07:47:30;;;;;;;8.57;1.90;;;11.30;99.90;;;;;;5034198;28;20071;-42
2022/04/09 07:49:55;;;;;;;7.22;1.90;;;11.20;99.90;;;;;;5028994;28;20175;-43
2022/04/09 07:52:24;;;;;;;8.55;2.13;;;11.20;99.90;;;;;;5039016;28;20056;-43
2022/04/09 07:54:50;;;;;;;6.63;1.70;;;11.00;99.90;;;;;;5029457;28;20056;-42
2022/04/09 07:57:15;;;;;;;10.60;2.25;;;11.10;99.90;;;;;;5030187;28;20053;-42
2022/04/09 07:59:41;;;;;;;10.50;2.03;;;11.20;99.90;;;;;;5039009;28;20111;-43
2022/04/09 08:02:07;;;;;;;8.13;1.80;;;11.00;99.90;;;;;;5025463;28;20097;-43
2022/04/09 08:04:33;;;;;;;9.05;1.55;;;10.80;99.90;;;;;;5012634;28;20080;-42
2022/04/09 08:06:58;;;;;;;3.47;1.15;;;10.40;99.90;;;;;;5033844;28;20114;-43
2022/04/09 08:09:24;;;;;;;5.75;1.13;;;10.10;99.90;;;;;;5040250;28;20048;-43
2022/04/09 08:11:50;;;;;;;4.68;1.10;;;10.10;99.90;;;;;;5037277;28;20057;-42
2022/04/09 08:14:16;;;;;;;4.65;1.00;;;10.10;99.90;;;;;;5035024;28;20493;-43
2022/04/09 08:16:41;;;;;;;2.78;1.50;;;10.20;99.90;;;;;;5022239;28;20447;-44
2022/04/09 08:19:07;;;;;;;2.72;1.15;;;10.40;99.90;;;;;;5030650;28;20053;-43
2022/04/09 08:21:34;;;;;;;3.38;0.88;;;10.50;99.90;;;;;;5022723;28;20044;-44
2022/04/09 08:23:59;;;;;;;5.00;1.38;;;10.50;99.90;;;;;;5029268;28;20579;-43
2022/04/09 08:26:25;;;;;;;7.95;1.48;;;10.70;99.90;;;;;;5021419;28;20049;-42
2022/04/09 08:28:51;;;;;;;6.65;1.15;;;10.60;99.90;;;;;;5038883;28;20084;-43
2022/04/09 08:31:17;;;;;;;4.70;1.45;;;10.70;99.90;;;;;;5026984;28;20532;-43
2022/04/09 08:33:43;;;;;;;5.72;1.38;;;10.60;99.90;;;;;;5031477;28;20076;-45
2022/04/09 08:36:09;;;;;;;7.22;1.77;;;10.70;99.90;;;;;;5015266;28;20492;-43
2022/04/09 08:38:34;;;;;;;5.88;1.70;;;10.80;99.90;;;;;;5028298;28;20120;-43
2022/04/09 08:41:03;;;;;;;3.30;1.17;;;11.00;99.90;;;;;;5027907;28;20791;-43
2022/04/09 08:43:30;;;;;;;8.82;1.45;;;11.10;99.90;;;;;;5010987;28;20483;-42
2022/04/09 08:46:00;;;;;;;7.45;1.83;;;11.00;99.90;;;;;;5004495;28;20093;-44
2022/04/09 08:48:27;;;;;;;9.90;1.95;;;11.20;99.90;;;;;;5023988;28;20084;-44
2022/04/09 08:50:54;;;;;;;10.45;1.95;;;11.20;99.90;;;;;;5009987;28;20113;-45
2022/04/09 08:53:19;;;;;;;9.05;2.08;;;11.40;99.90;;;;;;5033753;28;20053;-44
2022/04/09 08:55:47;;;;;;;6.72;1.60;;;11.30;99.90;;;;;;5033390;28;20060;-43
2022/04/09 08:58:12;;;;;;;11.00;2.10;;;11.50;99.90;;;;;;5032101;28;20129;-44
2022/04/09 09:00:38;;;;;;;8.93;2.30;;;11.60;99.90;;;;;;5037852;28;20407;-44
2022/04/09 09:03:05;;;;;;;8.35;2.38;;;11.70;99.90;;;;;;5014794;28;20332;-43
2022/04/09 09:05:38;;;;;;;9.90;2.30;;;11.60;99.90;;;;;;5033813;28;20060;-44
2022/04/09 09:08:10;;;;;;;7.50;2.10;;;11.20;99.90;;;;;;5021430;28;20060;-45
2022/04/09 09:10:38;;;;;;;7.70;1.95;;;10.90;99.90;;;;;;5032858;28;20052;-43
2022/04/09 09:13:08;;;;;;;9.52;2.28;;;10.50;99.90;;;;;;5029433;28;20087;-42
2022/04/09 09:15:51;;;;;;;6.75;2.08;;;10.70;99.90;;;;;;5027442;28;20597;-43
2022/04/09 09:18:22;;;;;;;8.88;2.10;;;11.10;99.90;;;;;;5038593;28;20103;-43
2022/04/09 09:20:55;;;;;;;9.55;2.00;;;11.30;99.90;;;;;;5027120;28;20055;-44
2022/04/09 09:23:23;;;;;;;14.35;2.75;;;11.50;99.90;;;;;;5024238;28;20127;-44
2022/04/09 09:25:53;;;;;;;9.43;2.20;;;11.70;99.90;;;;;;5014433;28;20415;-44
2022/04/09 09:28:33;;;;;;;13.38;2.88;;;11.90;99.90;;;;;;5005739;28;20599;-44
2022/04/09 09:31:00;;;;;;;13.15;3.05;;;12.00;99.90;;;;;;5029385;28;20367;-42
2022/04/09 09:33:27;;;;;;;11.82;2.00;;;11.70;99.90;;;;;;5022893;28;20059;-43
2022/04/09 09:36:00;;;;;;;11.73;2.67;;;11.40;99.90;;;;;;5028690;28;20123;-44
2022/04/09 09:38:28;;;;;;;10.68;2.42;;;11.40;99.90;;;;;;5035578;28;20053;-45
2022/04/09 09:40:56;;;;;;;9.77;2.25;;;11.30;99.90;;;;;;5013796;28;20158;-43
2022/04/09 09:43:25;;;;;;;7.05;1.90;;;11.20;99.90;;;;;;5020326;28;20049;-45
2022/04/09 09:45:53;;;;;;;7.45;1.92;;;10.90;99.90;;;;;;5030528;28;20053;-44
2022/04/09 09:48:25;;;;;;;10.13;2.70;;;10.80;99.90;;;;;;5006965;28;20131;-43
2022/04/09 09:50:53;;;;;;;8.25;1.67;;;10.60;99.90;;;;;;5031274;28;20065;-43
2022/04/09 09:53:36;;;;;;;8.05;2.85;;;10.50;99.90;;;;;;5026424;28;20057;-44
2022/04/09 09:56:03;;;;;;;11.30;2.25;;;10.50;99.90;;;;;;5022461;28;20111;-42
2022/04/09 09:58:30;;;;;;;11.18;2.45;;;10.80;99.90;;;;;;5006602;28;20467;-43
2022/04/09 10:00:57;;;;;;;7.40;1.67;;;11.00;99.90;;;;;;5037687;28;20041;-44
2022/04/09 10:03:24;;;;;;;9.55;1.88;;;11.30;99.90;;;;;;5032455;28;20076;-43
2022/04/09 10:05:50;;;;;;;7.60;1.60;;;11.30;99.90;;;;;;5037093;28;20610;-43
2022/04/09 10:08:17;;;;;;;9.73;2.35;;;11.30;99.90;;;;;;5042696;28;20132;-45
2022/04/09 10:10:48;;;;;;;6.78;1.70;;;11.00;99.90;;;;;;5006107;28;20057;-46
2022/04/09 10:13:19;;;;;;;12.25;1.90;;;10.70;99.90;;;;;;5031796;28;20055;-43
2022/04/09 10:15:48;;;;;;;14.18;2.85;;;10.10;99.90;;;;;;5033048;28;20124;-43
2022/04/09 10:18:15;;;;;;;12.10;2.67;;;9.30;99.90;;;;;;5030487;28;20102;-42
2022/04/09 10:20:42;;;;;;;7.38;2.00;;;8.60;99.90;;;;;;5025412;28;20036;-43
2022/04/09 10:23:09;;;;;;;8.90;2.40;;;8.10;99.90;;;;;;5022091;28;20460;-42
2022/04/09 10:25:39;;;;;;;10.98;2.17;;;7.70;99.90;;;;;;5029574;28;20545;-42
2022/04/09 10:28:06;;;;;;;9.25;1.85;;;7.50;99.90;;;;;;5029787;28;20049;-43
2022/04/09 10:30:48;;;;;;;7.68;1.88;;;7.50;99.90;;;;;;5030516;28;20048;-42
2022/04/09 10:33:22;;;;;;;13.68;2.58;;;7.50;99.90;;;;;;5024395;28;20037;-42
2022/04/09 10:35:49;;;;;;;8.20;1.60;;;7.60;99.90;;;;;;5026723;28;20045;-42
2022/04/09 10:38:18;;;;;;;6.90;1.77;;;7.60;99.90;;;;;;5022496;28;20048;-42
2022/04/09 10:40:50;;;;;;;10.05;2.75;;;7.70;99.90;;;;;;5027282;28;20508;-44
2022/04/09 10:43:25;;;;;;;11.73;2.10;;;7.80;99.90;;;;;;5021491;28;20049;-43
2022/04/09 10:46:03;;;;;;;12.02;2.45;;;8.10;99.90;;;;;;5024736;28;20069;-42
2022/04/09 10:48:34;;;;;;;12.85;2.45;;;8.50;99.90;;;;;;5003770;28;20564;-44
2022/04/09 10:51:11;;;;;;;9.98;2.40;;;9.00;99.90;;;;;;5023495;28;20047;-43
2022/04/09 10:53:51;;;;;;;10.40;2.50;;;9.20;99.90;;;;;;5032047;28;20694;-42
2022/04/09 10:56:28;;;;;;;9.73;2.10;;;9.00;99.90;;;;;;5019509;28;20053;-44
2022/04/09 10:59:10;;;;;;;10.93;2.08;;;8.80;99.90;;;;;;5028919;28;20045;-42
2022/04/09 11:01:48;;;;;;;11.90;2.53;;;8.70;99.90;;;;;;5040073;28;20067;-43
2022/04/09 11:04:34;;;;;;;12.43;2.20;;;8.40;99.90;;;;;;5043235;28;20052;-42
2022/04/09 11:07:10;;;;;;;9.05;1.98;;;8.20;99.90;;;;;;5042804;28;20581;-43
2022/04/09 11:09:45;;;;;;;8.77;2.20;;;8.20;99.90;;;;;;5026647;28;20451;-42
2022/04/09 11:12:12;;;;;;;5.78;1.60;;;8.20;99.90;;;;;;5024495;28;20052;-42
2022/04/09 11:14:47;;;;;;;10.32;2.45;;;8.20;99.90;;;;;;5024207;28;20087;-42
2022/04/09 11:17:23;;;;;;;8.73;2.20;;;8.20;99.90;;;;;;5024416;28;20056;-42
2022/04/09 11:19:49;;;;;;;7.35;2.22;;;8.30;99.90;;;;;;5025128;28;20049;-42
2022/04/09 11:22:15;;;;;;;6.97;1.50;;;8.40;99.90;;;;;;5027644;28;20492;-42
2022/04/09 11:24:41;;;;;;;12.13;1.83;;;8.60;99.90;;;;;;5024391;28;20061;-45
2022/04/09 11:27:07;;;;;;;9.98;2.30;;;8.70;99.90;;;;;;5023366;28;20057;-46
2022/04/09 11:29:38;;;;;;;11.00;1.80;;;8.80;99.90;;;;;;5022551;28;20059;-43
2022/04/09 11:32:04;;;;;;;11.07;1.80;;;8.80;99.90;;;;;;5023082;28;20420;-43
2022/04/09 11:34:52;;;;;;;9.10;2.08;;;9.00;99.90;;;;;;5022812;28;20493;-43
2022/04/09 11:37:18;;;;;;;7.10;2.25;;;9.10;99.90;;;;;;5021942;28;20502;-42
2022/04/09 11:39:47;;;;;;;9.82;2.20;;;9.30;99.90;;;;;;5025771;28;20040;-43
2022/04/09 11:42:14;;;;;;;10.93;1.77;;;9.50;99.90;;;;;;5030972;28;20041;-42
2022/04/09 11:44:40;;;;;;;7.18;1.50;;;9.50;99.90;;;;;;5029998;28;20060;-43
2022/04/09 11:47:15;;;;;;;7.97;1.50;;;9.60;99.90;;;;;;5005937;28;20057;-42
2022/04/09 11:49:47;;;;;;;7.05;1.55;;;9.60;99.90;;;;;;5034943;28;20042;-44
2022/04/09 11:52:23;;;;;;;3.30;1.02;;;9.50;99.90;;;;;;5033317;28;20119;-43
2022/04/09 11:54:49;;;;;;;4.72;1.55;;;9.20;99.90;;;;;;5029088;28;20049;-44
2022/04/09 11:57:15;;;;;;;3.08;0.73;;;8.60;99.90;;;;;;5038351;28;20045;-43
2022/04/09 11:59:41;;;;;;;4.32;1.10;;;8.30;99.90;;;;;;5035701;28;20045;-42
2022/04/09 12:02:26;;;;;;;4.32;1.10;;;8.10;99.90;;;;;;5042108;28;20131;-46
2022/04/09 12:04:57;;;;;;;8.50;1.30;;;7.90;99.90;;;;;;5044158;28;20055;-42
2022/04/09 12:07:26;;;;;;;6.63;1.23;;;8.00;99.90;;;;;;5035493;28;20048;-44
2022/04/09 12:09:54;;;;;;;3.80;1.05;;;8.10;99.90;;;;;;5018088;28;20053;-42
2022/04/09 12:12:23;;;;;;;3.45;1.15;;;8.40;99.90;;;;;;5035471;28;20048;-43
2022/04/09 12:14:54;;;;;;;5.68;1.45;;;8.60;99.90;;;;;;5035235;28;20120;-44
2022/04/09 12:17:23;;;;;;;5.80;1.50;;;8.60;99.90;;;;;;5037892;28;20068;-42
2022/04/09 12:19:50;;;;;;;4.43;1.25;;;8.80;99.90;;;;;;5038979;28;20060;-45
2022/04/09 12:22:22;;;;;;;3.92;1.00;;;8.80;99.90;;;;;;5034567;28;20049;-43
2022/04/09 12:24:57;;;;;;;2.53;0.90;;;8.90;99.90;;;;;;5038927;28;20120;-44
2022/04/09 12:27:44;;;;;;;4.70;1.20;;;9.20;99.90;;;;;;5014277;28;20111;-44
2022/04/09 12:30:10;;;;;;;4.07;1.25;;;9.20;99.90;;;;;;5019836;28;20052;-43
2022/04/09 12:32:36;;;;;;;3.85;0.77;;;9.30;99.90;;;;;;5039507;28;20053;-42
2022/04/09 12:35:10;;;;;;;3.50;1.77;;;9.40;99.90;;;;;;5038981;28;20489;-44
2022/04/09 12:37:52;;;;;;;7.45;2.75;;;9.70;99.90;;;;;;5021991;28;20058;-44
2022/04/09 12:40:21;;;;;;;6.25;1.50;;;9.90;99.90;;;;;;5036365;28;20154;-46
2022/04/09 12:42:48;;;;;;;9.20;2.08;;;9.80;99.90;;;;;;5035688;28;20839;-42
2022/04/09 12:45:23;;;;;;;9.77;1.83;;;9.70;99.90;;;;;;5037954;28;20056;-44
2022/04/09 12:48:11;;;;;;;4.72;1.77;;;9.90;99.90;;;;;;5035433;28;20060;-43
2022/04/09 12:50:37;;;;;;;5.53;1.70;;;10.10;99.90;;;;;;5019669;28;20064;-43
2022/04/09 12:53:04;;;;;;;7.18;1.83;;;10.20;99.90;;;;;;5033752;28;20041;-43
2022/04/09 12:55:33;;;;;;;6.15;1.75;;;10.20;99.90;;;;;;5045460;28;20059;-43
2022/04/09 12:58:02;;;;;;;7.13;1.23;;;10.10;99.90;;;;;;5037210;28;20341;-43
2022/04/09 13:00:32;;;;;;;6.05;1.33;;;9.90;99.90;;;;;;5036684;28;20068;-43
2022/04/09 13:02:59;;;;;;;5.30;1.13;;;9.60;99.90;;;;;;5038235;28;20484;-44